Time;durP1;ratioP1;P1;durP2;ratioP2;P2;SDS_P1;SDS_P2;PMS_P1;PMS_P2;Temp;Humidity;BMP_temperature;BMP_pressure;BME280_temperature;BME280_humidity;BME280_pressure;Samples;Min_cycle;Max_cycle;Signal;HPM_P1;HPM_P2
2023/08/12 00:00:38;;;;;;;2.92;1.50;;;25.20;59.60;;;;;;2476359;55;20945;-69
2023/08/12 00:03:04;;;;;;;2.90;1.60;;;25.10;59.60;;;;;;2249495;56;20973;-67
2023/08/12 00:05:30;;;;;;;2.90;1.50;;;25.20;59.70;;;;;;2249909;56;21383;-69
2023/08/12 00:07:57;;;;;;;2.85;1.35;;;25.20;59.80;;;;;;2249514;56;20993;-66
2023/08/12 00:10:24;;;;;;;3.15;1.62;;;25.10;59.70;;;;;;2250084;56;21009;-68
2023/08/12 00:12:50;;;;;;;2.92;1.50;;;25.10;59.80;;;;;;2475700;55;20909;-66
2023/08/12 00:15:16;;;;;;;3.05;1.40;;;25.10;59.80;;;;;;2249946;56;20937;-69
2023/08/12 00:17:43;;;;;;;2.80;1.52;;;25.10;59.90;;;;;;2249790;56;20945;-66
2023/08/12 00:20:12;;;;;;;3.40;1.60;;;25.10;59.90;;;;;;2250230;56;21028;-67
2023/08/12 00:22:38;;;;;;;2.87;1.50;;;25.10;60.00;;;;;;2475345;55;21497;-66
2023/08/12 00:25:06;;;;;;;2.78;1.48;;;25.10;60.00;;;;;;2249747;56;20909;-67
2023/08/12 00:27:33;;;;;;;2.53;1.50;;;25.10;60.00;;;;;;2476078;55;21001;-67
2023/08/12 00:29:59;;;;;;;2.58;1.40;;;25.10;60.80;;;;;;2475235;55;21244;-68
2023/08/12 00:32:26;;;;;;;3.08;1.75;;;25.10;60.10;;;;;;2249805;55;21063;-67
2023/08/12 00:34:52;;;;;;;2.90;1.70;;;25.10;60.20;;;;;;2476141;55;20914;-68
2023/08/12 00:37:18;;;;;;;3.33;1.90;;;25.10;60.20;;;;;;2476480;55;20965;-66
2023/08/12 00:39:45;;;;;;;3.10;1.60;;;25.10;60.90;;;;;;2245945;56;20969;-69
2023/08/12 00:42:11;;;;;;;2.75;1.45;;;25.10;60.30;;;;;;2242757;56;20922;-67
2023/08/12 00:44:38;;;;;;;3.45;1.80;;;25.10;60.30;;;;;;2475490;55;20977;-65
2023/08/12 00:47:05;;;;;;;2.70;1.42;;;25.10;60.30;;;;;;2510906;54;20941;-67
2023/08/12 00:49:32;;;;;;;3.03;1.67;;;25.10;60.30;;;;;;2476252;55;20976;-67
2023/08/12 00:51:58;;;;;;;3.10;1.73;;;25.00;60.30;;;;;;2249119;56;20940;-71
2023/08/12 00:54:25;;;;;;;4.07;1.62;;;25.00;60.30;;;;;;2248193;55;21536;-69
2023/08/12 00:56:51;;;;;;;2.53;1.33;;;25.00;60.40;;;;;;2249042;55;21027;-67
2023/08/12 00:59:19;;;;;;;2.65;1.23;;;25.00;60.40;;;;;;2249722;55;21052;-68
2023/08/12 01:01:46;;;;;;;2.97;1.60;;;25.00;60.50;;;;;;2475836;55;20973;-67
2023/08/12 01:04:12;;;;;;;3.42;1.80;;;25.00;60.60;;;;;;2250129;56;20968;-68
2023/08/12 01:06:39;;;;;;;3.05;1.58;;;25.00;60.60;;;;;;2467194;55;20978;-67
2023/08/12 01:09:06;;;;;;;3.10;1.48;;;25.00;60.70;;;;;;2276261;55;21802;-69
2023/08/12 01:11:49;;;;;;;2.75;1.50;;;25.00;60.70;;;;;;2279493;56;20987;-69
2023/08/12 01:14:25;;;;;;;2.85;1.50;;;25.00;60.60;;;;;;2244546;56;21004;-67
2023/08/12 01:16:56;;;;;;;3.65;1.80;;;25.00;60.60;;;;;;2475478;55;20981;-67
2023/08/12 01:20:34;;;;;;;3.00;1.62;;;24.90;60.60;;;;;;2249271;55;20981;-67
2023/08/12 01:23:13;;;;;;;2.62;1.40;;;24.90;60.40;;;;;;2254843;55;21016;-66
2023/08/12 01:25:43;;;;;;;2.70;1.50;;;24.90;61.40;;;;;;2482830;55;20964;-67
2023/08/12 01:28:09;;;;;;;3.10;1.73;;;24.90;60.90;;;;;;2482088;55;20951;-67
2023/08/12 01:30:39;;;;;;;3.05;1.75;;;24.80;60.90;;;;;;2518516;55;20907;-67
2023/08/12 01:33:12;;;;;;;2.83;1.40;;;24.80;61.10;;;;;;2265038;56;20993;-67
2023/08/12 01:35:44;;;;;;;4.55;1.70;;;24.80;61.10;;;;;;2220426;57;21053;-67
2023/08/12 01:38:12;;;;;;;3.30;1.70;;;24.80;61.10;;;;;;2256599;55;20963;-67
2023/08/12 01:40:40;;;;;;;2.90;1.52;;;24.80;61.20;;;;;;2518351;55;20950;-65
2023/08/12 01:43:08;;;;;;;2.78;1.37;;;24.80;61.20;;;;;;2284788;56;20907;-67
2023/08/12 01:45:35;;;;;;;2.78;1.50;;;24.80;61.30;;;;;;2519030;55;21057;-69
2023/08/12 01:48:02;;;;;;;3.58;1.60;;;24.80;61.30;;;;;;2285022;56;20975;-68
2023/08/12 01:50:29;;;;;;;3.70;1.90;;;24.80;61.30;;;;;;2259839;56;20969;-66
2023/08/12 01:52:56;;;;;;;2.92;1.42;;;24.80;61.40;;;;;;2249717;56;20975;-67
2023/08/12 01:55:23;;;;;;;3.08;1.60;;;24.80;61.50;;;;;;2475914;55;21624;-68
2023/08/12 01:57:49;;;;;;;2.50;1.33;;;24.90;61.60;;;;;;2475395;55;21009;-71
2023/08/12 02:00:15;;;;;;;2.70;1.23;;;24.80;61.50;;;;;;2249964;56;21422;-67
2023/08/12 02:02:42;;;;;;;3.08;1.50;;;24.80;61.50;;;;;;2249513;56;20979;-66
2023/08/12 02:05:08;;;;;;;2.70;1.45;;;24.80;61.40;;;;;;2245668;56;21010;-67
2023/08/12 02:07:35;;;;;;;2.87;1.40;;;24.80;62.20;;;;;;2471470;55;20960;-69
2023/08/12 02:10:01;;;;;;;3.30;1.85;;;24.80;61.50;;;;;;2475707;55;20949;-68
2023/08/12 02:12:27;;;;;;;3.37;1.75;;;24.80;61.60;;;;;;2476667;55;21020;-67
2023/08/12 02:14:55;;;;;;;3.65;1.50;;;24.60;61.40;;;;;;2475919;55;20976;-69
2023/08/12 02:17:24;;;;;;;3.00;1.60;;;24.80;61.70;;;;;;2475802;55;21450;-68
2023/08/12 02:19:50;;;;;;;2.80;1.50;;;24.80;61.70;;;;;;2475168;55;20952;-68
2023/08/12 02:22:17;;;;;;;3.33;1.73;;;24.80;61.70;;;;;;2249974;56;20946;-70
2023/08/12 02:24:43;;;;;;;3.37;1.90;;;24.80;61.70;;;;;;2249993;56;21021;-66
2023/08/12 02:27:10;;;;;;;3.42;1.95;;;24.80;61.80;;;;;;2475663;55;21308;-68
2023/08/12 02:29:37;;;;;;;2.67;1.50;;;24.70;61.70;;;;;;2468214;55;21033;-67
2023/08/12 02:32:04;;;;;;;2.97;1.60;;;24.70;61.80;;;;;;2245717;56;21032;-70
2023/08/12 02:34:31;;;;;;;3.25;1.70;;;24.70;61.90;;;;;;2475839;55;20949;-70
2023/08/12 02:36:57;;;;;;;2.62;1.42;;;24.70;61.90;;;;;;2475544;55;21008;-67
2023/08/12 02:39:24;;;;;;;3.85;1.60;;;24.70;61.90;;;;;;2475149;55;20959;-67
2023/08/12 02:41:50;;;;;;;3.78;1.73;;;24.70;62.00;;;;;;2476302;55;21036;-69
2023/08/12 02:44:17;;;;;;;3.00;1.42;;;24.70;62.00;;;;;;2254444;55;21367;-68
2023/08/12 02:46:43;;;;;;;3.30;1.90;;;24.80;62.10;;;;;;2482413;55;21127;-68
2023/08/12 02:49:09;;;;;;;3.05;1.60;;;24.70;62.10;;;;;;2481725;55;21045;-67
2023/08/12 02:51:36;;;;;;;3.30;1.80;;;24.80;62.20;;;;;;2249666;55;21036;-66
2023/08/12 02:54:02;;;;;;;3.58;1.58;;;24.80;62.20;;;;;;2248934;55;20996;-70
2023/08/12 02:56:29;;;;;;;2.75;1.45;;;24.80;62.30;;;;;;2476330;55;20948;-66
2023/08/12 02:58:56;;;;;;;3.40;1.60;;;24.80;62.30;;;;;;2263177;55;21037;-67
2023/08/12 03:01:23;;;;;;;3.08;1.80;;;24.80;62.30;;;;;;2249502;55;21065;-67
2023/08/12 03:03:49;;;;;;;3.85;1.77;;;24.80;62.30;;;;;;2263131;55;21027;-67
2023/08/12 03:06:15;;;;;;;2.95;1.58;;;24.80;62.40;;;;;;2250156;55;20995;-69
2023/08/12 03:08:43;;;;;;;3.05;1.70;;;24.80;62.40;;;;;;2249406;55;20996;-67
2023/08/12 03:11:09;;;;;;;2.75;1.40;;;24.80;62.40;;;;;;2260914;56;21006;-66
2023/08/12 03:13:35;;;;;;;2.92;1.45;;;24.80;62.40;;;;;;2477337;55;20965;-69
2023/08/12 03:16:02;;;;;;;3.62;1.52;;;24.80;62.40;;;;;;2475812;55;21033;-70
2023/08/12 03:18:30;;;;;;;3.17;1.48;;;24.80;62.40;;;;;;2250590;55;20972;-67
2023/08/12 03:20:59;;;;;;;2.47;1.27;;;24.80;62.30;;;;;;2475787;55;21024;-70
2023/08/12 03:23:25;;;;;;;3.62;1.60;;;24.80;62.30;;;;;;2476569;55;21013;-68
2023/08/12 03:25:52;;;;;;;2.58;1.45;;;24.80;62.30;;;;;;2250025;55;20933;-67
2023/08/12 03:28:18;;;;;;;2.62;1.35;;;24.80;62.20;;;;;;2250042;55;20945;-68
2023/08/12 03:30:52;;;;;;;3.00;1.65;;;24.80;62.30;;;;;;2249735;55;21072;-70
2023/08/12 03:33:18;;;;;;;3.17;1.65;;;24.80;62.20;;;;;;2476476;55;21021;-67
2023/08/12 03:35:46;;;;;;;3.62;1.40;;;24.80;62.40;;;;;;2476307;55;20992;-68
2023/08/12 03:38:13;;;;;;;2.72;1.60;;;24.80;62.40;;;;;;2476322;55;21506;-67
2023/08/12 03:40:39;;;;;;;2.97;1.65;;;24.80;62.40;;;;;;2476395;55;21426;-70
2023/08/12 03:43:06;;;;;;;2.53;1.40;;;24.80;62.50;;;;;;2249779;55;21000;-68
2023/08/12 03:45:33;;;;;;;3.33;1.60;;;24.80;62.60;;;;;;2261362;55;21010;-67
2023/08/12 03:48:02;;;;;;;2.70;1.58;;;24.70;62.40;;;;;;2478007;55;20960;-67
2023/08/12 03:50:29;;;;;;;2.40;1.30;;;24.60;62.40;;;;;;2249763;55;20988;-69
2023/08/12 03:52:55;;;;;;;3.65;1.48;;;24.70;62.50;;;;;;2476387;55;20993;-68
2023/08/12 03:55:21;;;;;;;3.08;1.50;;;24.70;62.50;;;;;;2249864;55;20980;-70
2023/08/12 03:57:48;;;;;;;2.70;1.50;;;24.70;62.50;;;;;;2476344;55;21468;-66
2023/08/12 04:00:16;;;;;;;2.78;1.52;;;24.70;62.60;;;;;;2476028;55;21017;-67
2023/08/12 04:02:43;;;;;;;2.70;1.50;;;24.70;62.60;;;;;;2249707;55;20968;-66
2023/08/12 04:05:10;;;;;;;4.82;1.62;;;24.70;62.50;;;;;;2249732;55;20992;-66
2023/08/12 04:07:37;;;;;;;4.05;1.45;;;24.70;62.50;;;;;;2250213;55;20968;-68
2023/08/12 04:10:05;;;;;;;3.10;1.65;;;24.70;62.60;;;;;;2249947;55;21505;-67
2023/08/12 04:12:32;;;;;;;2.58;1.33;;;24.70;62.70;;;;;;2249808;55;20960;-68
2023/08/12 04:14:59;;;;;;;2.80;1.55;;;24.70;62.70;;;;;;2476049;55;21018;-65
2023/08/12 04:17:26;;;;;;;3.00;1.25;;;24.70;62.70;;;;;;2249614;55;20969;-66
2023/08/12 04:19:52;;;;;;;3.05;1.50;;;24.60;62.50;;;;;;2249659;55;20957;-68
2023/08/12 04:22:19;;;;;;;2.92;1.40;;;24.60;62.60;;;;;;2475963;55;21418;-71
2023/08/12 04:24:45;;;;;;;4.32;1.42;;;24.60;62.60;;;;;;2250015;55;21505;-68
2023/08/12 04:27:11;;;;;;;2.92;1.65;;;24.60;62.50;;;;;;2476216;55;20961;-66
2023/08/12 04:29:39;;;;;;;3.70;1.55;;;24.60;62.60;;;;;;2254038;55;20973;-66
2023/08/12 04:32:05;;;;;;;3.90;1.85;;;24.60;62.60;;;;;;2257291;56;21049;-67
2023/08/12 04:34:32;;;;;;;2.80;1.37;;;24.50;62.60;;;;;;2254006;55;21744;-69
2023/08/12 04:36:58;;;;;;;3.17;1.77;;;24.50;62.70;;;;;;2253347;56;20958;-67
2023/08/12 04:39:26;;;;;;;2.85;1.55;;;24.50;62.70;;;;;;2469549;55;20945;-67
2023/08/12 04:41:52;;;;;;;3.17;1.60;;;24.50;62.80;;;;;;2259928;55;21035;-67
2023/08/12 04:44:18;;;;;;;2.83;1.55;;;24.50;63.50;;;;;;2251786;55;20937;-66
2023/08/12 04:46:45;;;;;;;3.10;1.60;;;24.40;62.70;;;;;;2262170;55;20951;-66
2023/08/12 04:49:14;;;;;;;2.50;1.27;;;24.40;62.70;;;;;;2472164;55;20989;-67
2023/08/12 04:51:43;;;;;;;3.15;1.55;;;24.40;62.80;;;;;;2475787;55;20968;-67
2023/08/12 04:54:11;;;;;;;4.53;1.70;;;24.40;62.80;;;;;;2249909;55;20949;-67
2023/08/12 04:56:38;;;;;;;3.20;1.30;;;24.40;62.80;;;;;;2249453;55;20956;-66
2023/08/12 04:59:05;;;;;;;3.15;1.62;;;24.40;62.90;;;;;;2475721;55;21004;-66
2023/08/12 05:01:32;;;;;;;2.85;1.48;;;24.40;63.00;;;;;;2249743;55;21018;-70
2023/08/12 05:03:59;;;;;;;2.80;1.60;;;24.40;63.10;;;;;;2475997;55;20980;-74
2023/08/12 05:06:27;;;;;;;2.80;1.30;;;24.40;63.20;;;;;;2249581;55;20972;-67
2023/08/12 05:08:57;;;;;;;3.83;2.15;;;24.30;63.10;;;;;;2476475;55;21056;-69
2023/08/12 05:11:23;;;;;;;3.53;1.60;;;24.30;63.20;;;;;;2255984;55;21949;-67
2023/08/12 05:13:50;;;;;;;3.03;1.75;;;24.40;63.30;;;;;;2517984;55;20987;-66
2023/08/12 05:16:16;;;;;;;3.92;1.90;;;24.40;63.40;;;;;;2280195;56;21422;-71
2023/08/12 05:18:43;;;;;;;3.85;1.95;;;24.40;63.50;;;;;;2249872;56;21020;-67
2023/08/12 05:21:10;;;;;;;3.20;1.85;;;24.40;63.50;;;;;;2249817;56;20964;-68
2023/08/12 05:23:37;;;;;;;2.90;1.70;;;24.40;63.60;;;;;;2475883;55;21850;-66
2023/08/12 05:26:03;;;;;;;4.95;2.20;;;24.40;63.60;;;;;;2475796;55;21032;-69
2023/08/12 05:28:29;;;;;;;2.87;1.52;;;24.40;63.70;;;;;;2249544;56;20944;-67
2023/08/12 05:30:56;;;;;;;2.97;1.70;;;24.40;63.70;;;;;;2249720;56;21390;-67
2023/08/12 05:33:22;;;;;;;4.90;2.30;;;24.40;63.80;;;;;;2475523;55;21058;-66
2023/08/12 05:35:50;;;;;;;3.70;2.08;;;24.40;63.80;;;;;;2475785;55;21053;-66
2023/08/12 05:38:16;;;;;;;3.35;2.12;;;24.40;63.80;;;;;;2475984;55;20937;-66
2023/08/12 05:40:45;;;;;;;3.20;1.85;;;24.40;63.80;;;;;;2474804;55;21694;-67
2023/08/12 05:43:11;;;;;;;3.05;1.80;;;24.40;63.80;;;;;;2249457;56;20981;-68
2023/08/12 05:45:38;;;;;;;3.83;1.80;;;24.40;63.80;;;;;;2248958;56;21139;-66
2023/08/12 05:48:06;;;;;;;2.97;1.55;;;24.40;63.80;;;;;;2476371;55;21012;-66
2023/08/12 05:50:32;;;;;;;3.33;1.83;;;24.50;64.00;;;;;;2475615;55;20964;-67
2023/08/12 05:52:58;;;;;;;3.83;1.75;;;24.50;64.00;;;;;;2249535;56;21736;-68
2023/08/12 05:55:26;;;;;;;3.20;1.80;;;24.50;64.00;;;;;;2475574;55;21920;-70
2023/08/12 05:57:53;;;;;;;3.03;1.87;;;24.50;64.00;;;;;;2475574;55;21032;-70
2023/08/12 06:00:22;;;;;;;3.10;1.85;;;24.60;64.10;;;;;;2249035;55;21041;-67
2023/08/12 06:02:49;;;;;;;3.05;1.77;;;24.60;64.00;;;;;;2476183;55;21748;-67
2023/08/12 06:05:17;;;;;;;3.10;1.60;;;24.60;64.00;;;;;;2249997;55;20957;-67
2023/08/12 06:07:49;;;;;;;3.55;1.60;;;24.60;64.00;;;;;;2249659;55;20945;-66
2023/08/12 06:10:15;;;;;;;3.85;1.58;;;24.70;64.10;;;;;;2250612;55;21048;-67
2023/08/12 06:12:43;;;;;;;2.58;1.60;;;24.70;64.20;;;;;;2477578;55;20965;-68
2023/08/12 06:15:09;;;;;;;4.15;2.03;;;24.70;64.20;;;;;;2258164;55;21473;-65
2023/08/12 06:17:36;;;;;;;3.08;1.80;;;24.80;64.30;;;;;;2250421;55;21942;-68
2023/08/12 06:20:03;;;;;;;2.87;1.65;;;24.80;64.30;;;;;;2476225;55;21001;-68
2023/08/12 06:22:29;;;;;;;3.97;1.92;;;24.80;64.20;;;;;;2250176;55;21636;-67
2023/08/12 06:24:55;;;;;;;3.00;1.70;;;24.80;64.20;;;;;;2250188;55;21025;-67
2023/08/12 06:27:21;;;;;;;3.60;1.98;;;24.80;64.30;;;;;;2481470;55;21035;-67
2023/08/12 06:29:48;;;;;;;3.92;1.60;;;24.90;64.40;;;;;;2482155;55;21000;-66
2023/08/12 06:32:14;;;;;;;3.20;1.52;;;25.00;64.50;;;;;;2475176;55;21080;-65
2023/08/12 06:34:41;;;;;;;3.85;2.12;;;25.00;64.50;;;;;;2480641;55;20995;-67
2023/08/12 06:37:07;;;;;;;3.30;1.62;;;25.00;64.50;;;;;;2477379;55;20945;-69
2023/08/12 06:39:33;;;;;;;3.08;1.80;;;25.00;64.50;;;;;;2473253;55;21351;-66
2023/08/12 06:42:00;;;;;;;4.30;2.05;;;25.10;64.60;;;;;;2476151;55;21052;-67
2023/08/12 06:44:26;;;;;;;5.95;1.90;;;25.20;64.60;;;;;;2475039;55;20929;-67
2023/08/12 06:46:52;;;;;;;4.28;2.05;;;25.20;64.60;;;;;;2476022;55;21359;-66
2023/08/12 06:49:20;;;;;;;3.10;1.90;;;25.20;64.60;;;;;;2475897;55;20957;-67
2023/08/12 06:51:46;;;;;;;4.85;2.03;;;25.30;64.60;;;;;;2253934;55;21033;-69
2023/08/12 06:54:13;;;;;;;3.53;1.92;;;25.30;64.50;;;;;;2483576;55;21025;-67
2023/08/12 06:56:39;;;;;;;5.32;2.40;;;25.40;64.50;;;;;;2257568;56;20978;-67
2023/08/12 06:59:05;;;;;;;3.20;1.80;;;25.50;64.50;;;;;;2473875;55;21368;-66
2023/08/12 07:01:32;;;;;;;3.05;1.65;;;25.50;64.50;;;;;;2248572;55;21081;-67
2023/08/12 07:03:58;;;;;;;3.83;1.60;;;25.60;64.50;;;;;;2249849;55;20981;-66
2023/08/12 07:06:24;;;;;;;3.30;1.77;;;25.60;64.40;;;;;;2250200;55;21024;-68
2023/08/12 07:08:52;;;;;;;4.62;2.10;;;25.70;64.50;;;;;;2258270;55;21011;-69
2023/08/12 07:11:18;;;;;;;3.60;2.12;;;25.70;64.50;;;;;;2253600;55;21032;-67
2023/08/12 07:13:46;;;;;;;3.37;2.20;;;25.80;64.40;;;;;;2250085;55;20992;-66
2023/08/12 07:16:12;;;;;;;4.05;2.20;;;25.90;64.40;;;;;;2486714;55;21014;-66
2023/08/12 07:18:39;;;;;;;3.28;2.00;;;25.90;64.20;;;;;;2478247;55;21032;-66
2023/08/12 07:21:05;;;;;;;3.67;2.10;;;26.00;64.20;;;;;;2477175;55;21739;-70
2023/08/12 07:23:31;;;;;;;3.30;2.00;;;26.00;64.10;;;;;;2476160;55;21159;-68
2023/08/12 07:25:58;;;;;;;3.22;2.17;;;26.00;64.00;;;;;;2260675;55;20981;-66
2023/08/12 07:28:25;;;;;;;4.90;2.28;;;26.10;64.00;;;;;;2476935;55;20973;-66
2023/08/12 07:30:52;;;;;;;4.43;2.58;;;26.20;64.00;;;;;;2251116;55;20958;-66
2023/08/12 07:33:21;;;;;;;3.53;1.98;;;26.20;63.90;;;;;;2251967;55;21315;-65
2023/08/12 07:35:48;;;;;;;3.67;2.12;;;26.30;63.80;;;;;;2252902;55;21028;-66
2023/08/12 07:38:17;;;;;;;4.00;2.37;;;26.40;64.10;;;;;;2252779;55;20957;-67
2023/08/12 07:40:43;;;;;;;4.20;2.10;;;26.40;64.10;;;;;;2250994;55;21278;-66
2023/08/12 07:43:10;;;;;;;3.25;1.90;;;26.50;64.10;;;;;;2478211;55;21493;-66
2023/08/12 07:45:39;;;;;;;3.85;2.40;;;26.60;64.00;;;;;;2477119;55;21459;-69
2023/08/12 07:48:05;;;;;;;3.30;2.12;;;26.70;63.90;;;;;;2257586;55;21022;-69
2023/08/12 07:50:31;;;;;;;2.85;1.70;;;26.70;63.60;;;;;;2265751;56;20974;-67
2023/08/12 07:52:58;;;;;;;3.03;1.80;;;26.80;63.60;;;;;;2250959;56;21016;-66
2023/08/12 07:55:24;;;;;;;3.20;1.70;;;26.90;63.50;;;;;;2476360;55;21021;-66
2023/08/12 07:57:52;;;;;;;4.72;2.00;;;27.00;63.60;;;;;;2476550;55;21470;-68
2023/08/12 08:00:19;;;;;;;3.60;1.70;;;27.10;63.60;;;;;;2475244;55;21009;-68
2023/08/12 08:02:46;;;;;;;3.67;1.85;;;27.10;63.30;;;;;;2250170;56;20976;-69
2023/08/12 08:05:12;;;;;;;3.30;1.85;;;27.20;63.40;;;;;;2252542;56;21881;-68
2023/08/12 08:07:39;;;;;;;3.22;1.73;;;27.30;63.50;;;;;;2246500;56;20990;-68
2023/08/12 08:10:06;;;;;;;4.53;2.20;;;27.30;63.40;;;;;;2467116;55;20965;-71
2023/08/12 08:12:32;;;;;;;7.72;2.58;;;27.40;63.50;;;;;;2470159;55;21502;-67
2023/08/12 08:15:00;;;;;;;4.35;1.75;;;27.50;63.80;;;;;;2243023;56;21044;-68
2023/08/12 08:17:26;;;;;;;3.40;1.75;;;27.60;63.70;;;;;;2250127;56;20972;-70
2023/08/12 08:19:52;;;;;;;2.67;1.60;;;27.70;63.60;;;;;;2250583;56;20962;-68
2023/08/12 08:22:19;;;;;;;3.00;1.70;;;27.70;63.70;;;;;;2242227;56;20997;-68
2023/08/12 08:24:45;;;;;;;3.60;1.98;;;27.80;63.60;;;;;;2254871;55;21122;-66
2023/08/12 08:27:13;;;;;;;3.15;1.65;;;27.90;63.20;;;;;;2475936;55;20955;-68
2023/08/12 08:29:39;;;;;;;3.00;1.67;;;27.90;62.90;;;;;;2437241;56;21063;-67
2023/08/12 08:32:06;;;;;;;3.35;2.00;;;28.00;62.80;;;;;;2476587;55;21462;-70
2023/08/12 08:34:32;;;;;;;3.33;1.90;;;28.10;62.70;;;;;;2249224;56;21445;-68
2023/08/12 08:37:00;;;;;;;3.47;2.00;;;28.10;62.50;;;;;;2249876;56;21479;-69
2023/08/12 08:39:26;;;;;;;3.55;1.98;;;28.20;62.60;;;;;;2475861;55;20972;-69
2023/08/12 08:41:55;;;;;;;3.00;1.70;;;28.20;62.40;;;;;;2252609;56;20953;-66
2023/08/12 08:44:22;;;;;;;3.20;2.00;;;28.20;62.30;;;;;;2238826;56;20949;-66
2023/08/12 08:46:53;;;;;;;4.05;2.00;;;28.30;62.30;;;;;;2249597;56;20958;-66
2023/08/12 08:49:20;;;;;;;3.90;2.15;;;28.20;62.20;;;;;;2242441;56;21726;-68
2023/08/12 08:51:48;;;;;;;4.72;2.12;;;28.30;62.30;;;;;;2249614;56;20953;-66
2023/08/12 08:54:17;;;;;;;3.08;1.80;;;28.30;62.30;;;;;;2247747;56;20970;-68
2023/08/12 08:56:44;;;;;;;3.30;1.98;;;28.30;62.30;;;;;;2243312;56;20960;-67
2023/08/12 08:59:10;;;;;;;3.28;2.03;;;28.30;62.40;;;;;;2220441;56;1887492;-66
2023/08/12 09:01:37;;;;;;;4.43;2.25;;;28.30;62.40;;;;;;2461130;55;20977;-66
2023/08/12 09:04:04;;;;;;;3.37;2.12;;;28.30;62.40;;;;;;2244354;56;21099;-67
2023/08/12 09:06:30;;;;;;;3.85;2.37;;;28.30;62.50;;;;;;2239619;56;20960;-70
2023/08/12 09:08:57;;;;;;;3.85;2.22;;;28.40;62.50;;;;;;2249780;56;20948;-67
2023/08/12 09:11:26;;;;;;;3.87;2.12;;;28.40;62.40;;;;;;2249559;56;21892;-67
2023/08/12 09:13:52;;;;;;;3.75;2.35;;;28.40;62.30;;;;;;2468577;55;21023;-67
2023/08/12 09:16:19;;;;;;;3.72;2.00;;;28.40;62.20;;;;;;2244023;56;21035;-68
2023/08/12 09:18:45;;;;;;;2.95;1.80;;;28.50;62.40;;;;;;2248701;56;21887;-67
2023/08/12 09:21:11;;;;;;;3.50;1.98;;;28.50;62.50;;;;;;2250249;56;21080;-68
2023/08/12 09:23:38;;;;;;;2.85;1.58;;;28.50;62.40;;;;;;2248625;56;20944;-68
2023/08/12 09:26:13;;;;;;;3.03;1.95;;;28.60;62.60;;;;;;2474765;55;21008;-67
2023/08/12 09:28:42;;;;;;;3.30;1.73;;;28.60;61.80;;;;;;2248235;55;21038;-69
2023/08/12 09:31:08;;;;;;;3.25;1.87;;;28.70;62.30;;;;;;2436299;56;21287;-67
2023/08/12 09:33:40;;;;;;;3.20;1.73;;;28.80;62.20;;;;;;2489556;55;20924;-67
2023/08/12 09:36:06;;;;;;;3.67;1.75;;;28.80;61.70;;;;;;2518979;55;21058;-67
2023/08/12 09:38:33;;;;;;;3.05;1.73;;;28.90;61.90;;;;;;2258490;56;21404;-67
2023/08/12 09:41:00;;;;;;;3.30;1.77;;;28.90;61.60;;;;;;2475809;55;20972;-67
2023/08/12 09:43:30;;;;;;;3.28;1.48;;;29.00;61.50;;;;;;2249880;56;20985;-67
2023/08/12 09:46:00;;;;;;;2.62;1.50;;;29.00;61.20;;;;;;2475944;55;21016;-67
2023/08/12 09:48:29;;;;;;;3.08;1.65;;;29.00;61.20;;;;;;2249768;56;21735;-67
2023/08/12 09:50:58;;;;;;;3.17;1.65;;;29.10;61.00;;;;;;2474882;55;21129;-67
2023/08/12 09:53:24;;;;;;;3.87;1.65;;;29.10;61.10;;;;;;2249807;56;21041;-69
2023/08/12 09:55:51;;;;;;;3.12;2.00;;;29.20;60.90;;;;;;2475994;55;20933;-67
2023/08/12 09:58:17;;;;;;;3.03;1.60;;;29.20;60.90;;;;;;2476410;55;21041;-67
2023/08/12 10:00:45;;;;;;;3.28;2.03;;;29.20;60.70;;;;;;2249792;55;21093;-66
2023/08/12 10:03:15;;;;;;;4.95;1.90;;;29.20;60.60;;;;;;2278185;55;20924;-67
2023/08/12 10:05:41;;;;;;;2.83;1.60;;;29.30;60.40;;;;;;2248946;56;21012;-67
2023/08/12 10:08:09;;;;;;;3.08;1.67;;;29.30;60.50;;;;;;2476205;55;21000;-67
2023/08/12 10:10:36;;;;;;;2.78;1.50;;;29.30;60.50;;;;;;2251849;56;20974;-70
2023/08/12 10:13:07;;;;;;;3.10;1.73;;;29.40;60.70;;;;;;2240841;56;21501;-68
2023/08/12 10:15:34;;;;;;;3.67;1.50;;;29.50;60.60;;;;;;2249894;56;21075;-66
2023/08/12 10:18:07;;;;;;;3.10;1.70;;;29.60;60.20;;;;;;2249976;56;21280;-67
2023/08/12 10:20:35;;;;;;;2.90;1.55;;;29.60;59.60;;;;;;2250084;56;21028;-67
2023/08/12 10:23:01;;;;;;;3.58;1.37;;;29.60;59.80;;;;;;2475538;55;20964;-67
2023/08/12 10:25:31;;;;;;;2.70;1.08;;;29.70;59.90;;;;;;2249584;56;21516;-68
2023/08/12 10:27:57;;;;;;;3.72;1.50;;;29.70;59.80;;;;;;2249335;56;21029;-71
2023/08/12 10:30:28;;;;;;;2.80;1.45;;;29.70;59.90;;;;;;2475805;55;20985;-67
2023/08/12 10:32:54;;;;;;;3.30;1.67;;;29.80;59.70;;;;;;2249330;56;21402;-68
2023/08/12 10:35:24;;;;;;;3.35;1.77;;;29.80;59.60;;;;;;2476156;55;20989;-70
2023/08/12 10:37:51;;;;;;;3.85;1.70;;;29.80;59.30;;;;;;2474966;55;20965;-68
2023/08/12 10:40:21;;;;;;;7.72;2.33;;;29.90;59.50;;;;;;2249867;56;20960;-68
2023/08/12 10:42:48;;;;;;;3.53;1.83;;;29.90;59.20;;;;;;2475656;55;20929;-67
2023/08/12 10:45:16;;;;;;;3.30;1.58;;;29.90;59.20;;;;;;2476469;55;20977;-68
2023/08/12 10:48:50;;;;;;;3.08;1.83;;;30.00;59.10;;;;;;2475551;55;20973;-68
2023/08/12 10:51:16;;;;;;;4.53;1.58;;;30.00;58.50;;;;;;2244880;56;20965;-68
2023/08/12 10:53:44;;;;;;;3.78;1.87;;;30.00;59.10;;;;;;2471280;55;21870;-68
2023/08/12 10:56:11;;;;;;;4.15;1.73;;;30.00;59.40;;;;;;2251173;56;20937;-69
2023/08/12 10:58:48;;;;;;;2.83;1.45;;;30.00;59.60;;;;;;2249995;56;20996;-69
2023/08/12 11:01:18;;;;;;;3.37;1.52;;;30.00;59.60;;;;;;2484424;54;20943;-70
2023/08/12 11:03:44;;;;;;;3.47;1.42;;;30.00;59.80;;;;;;2475092;55;20984;-69
2023/08/12 11:06:11;;;;;;;5.30;1.92;;;30.00;59.90;;;;;;2475516;55;21000;-68
2023/08/12 11:09:06;;;;;;;5.45;1.87;;;29.90;59.90;;;;;;2474322;55;20969;-69
2023/08/12 11:11:34;;;;;;;3.75;1.50;;;29.90;59.90;;;;;;2243536;56;20998;-70
2023/08/12 11:14:10;;;;;;;4.65;1.80;;;29.80;59.90;;;;;;2466527;55;20982;-71
2023/08/12 11:16:37;;;;;;;2.72;1.60;;;29.80;60.00;;;;;;2247417;56;21016;-70
2023/08/12 11:19:06;;;;;;;3.72;1.77;;;29.70;60.70;;;;;;2477124;55;20996;-70
2023/08/12 11:21:32;;;;;;;3.92;1.80;;;29.70;61.60;;;;;;2250218;56;20999;-71
2023/08/12 11:23:58;;;;;;;3.20;1.65;;;29.60;62.40;;;;;;2476342;55;20977;-71
2023/08/12 11:26:24;;;;;;;3.80;2.00;;;29.50;63.10;;;;;;2250488;56;20937;-70
2023/08/12 11:28:52;;;;;;;3.42;1.90;;;29.40;63.70;;;;;;2476158;55;20985;-69
2023/08/12 11:31:22;;;;;;;3.53;1.80;;;29.30;64.90;;;;;;2250383;56;20957;-70
2023/08/12 11:33:48;;;;;;;3.95;1.58;;;29.30;64.70;;;;;;2507078;55;21030;-70
2023/08/12 11:36:15;;;;;;;3.25;1.33;;;29.30;65.10;;;;;;2276057;55;21057;-70
2023/08/12 11:38:42;;;;;;;3.12;1.48;;;29.20;65.40;;;;;;2506243;55;20998;-68
2023/08/12 11:41:08;;;;;;;3.10;1.50;;;29.20;65.80;;;;;;2275548;56;20957;-70
2023/08/12 11:43:35;;;;;;;3.12;1.45;;;29.20;66.20;;;;;;2271584;56;21103;-68
2023/08/12 11:46:01;;;;;;;3.65;1.60;;;29.10;66.40;;;;;;2256944;56;21023;-71
2023/08/12 11:48:28;;;;;;;3.25;1.50;;;29.10;66.70;;;;;;2274933;56;21022;-70
2023/08/12 11:50:54;;;;;;;3.97;1.60;;;29.10;67.00;;;;;;2274843;55;20938;-71
2023/08/12 11:53:20;;;;;;;4.37;1.60;;;29.10;67.50;;;;;;2275572;56;21014;-70
2023/08/12 11:55:47;;;;;;;3.45;2.08;;;29.00;67.80;;;;;;2505674;55;21002;-69
2023/08/12 11:58:18;;;;;;;2.60;1.40;;;29.00;68.30;;;;;;2494402;54;21063;-71
2023/08/12 12:00:46;;;;;;;2.50;1.40;;;29.00;68.70;;;;;;2275099;55;20942;-70
2023/08/12 12:03:12;;;;;;;3.45;1.52;;;29.00;69.30;;;;;;2266144;56;21496;-69
2023/08/12 12:05:39;;;;;;;2.97;1.40;;;29.00;69.80;;;;;;2481684;55;20986;-68
2023/08/12 12:08:08;;;;;;;3.75;1.85;;;29.00;70.10;;;;;;2264658;55;20939;-68
2023/08/12 12:10:35;;;;;;;3.72;1.83;;;29.00;70.50;;;;;;2506312;55;21082;-71
2023/08/12 12:13:03;;;;;;;5.12;2.03;;;29.00;70.50;;;;;;2275022;56;20994;-69
2023/08/12 12:15:33;;;;;;;3.62;2.05;;;29.10;70.90;;;;;;2507277;55;20997;-72
2023/08/12 12:17:59;;;;;;;5.57;1.90;;;29.10;71.00;;;;;;2499310;55;20953;-67
2023/08/12 12:20:27;;;;;;;3.67;2.20;;;29.10;70.90;;;;;;2500175;55;20942;-67
2023/08/12 12:22:54;;;;;;;3.15;1.77;;;29.20;70.90;;;;;;2275213;54;21450;-67
2023/08/12 12:25:22;;;;;;;3.30;1.90;;;29.10;70.80;;;;;;2505924;55;20942;-69
2023/08/12 12:27:48;;;;;;;3.50;2.05;;;29.20;70.80;;;;;;2275211;55;20986;-69
2023/08/12 12:30:15;;;;;;;3.30;1.80;;;29.20;70.60;;;;;;2507309;55;21058;-70
2023/08/12 12:32:42;;;;;;;4.07;2.00;;;29.20;70.60;;;;;;2274311;55;20993;-67
2023/08/12 12:35:10;;;;;;;3.45;1.90;;;29.20;71.20;;;;;;2505882;55;21006;-67
2023/08/12 12:37:36;;;;;;;3.53;1.95;;;29.20;70.50;;;;;;2506358;55;20955;-67
2023/08/12 12:40:05;;;;;;;3.15;1.80;;;29.20;70.60;;;;;;2498506;55;21373;-67
2023/08/12 12:42:31;;;;;;;4.12;1.90;;;29.20;70.70;;;;;;2500380;55;21058;-70
2023/08/12 12:44:57;;;;;;;2.67;1.62;;;29.20;70.70;;;;;;2502677;55;21001;-68
2023/08/12 12:47:25;;;;;;;4.03;2.03;;;29.20;70.70;;;;;;2267018;55;21110;-66
2023/08/12 12:49:51;;;;;;;3.22;1.80;;;29.20;70.70;;;;;;2274567;55;20971;-67